Time;durP1;ratioP1;P1;durP2;ratioP2;P2;SDS_P1;SDS_P2;PMS_P1;PMS_P2;Temp;Humidity;BMP_temperature;BMP_pressure;BME280_temperature;BME280_humidity;BME280_pressure;Samples;Min_cycle;Max_cycle;Signal;HPM_P1;HPM_P2
2023/07/09 00:01:48;;;;;;;5.33;4.00;;;24.40;99.90;;;;;;5022664;28;20520;-81
2023/07/09 00:04:17;;;;;;;7.93;3.93;;;24.30;99.90;;;;;;5037849;28;20481;-82
2023/07/09 00:06:44;;;;;;;6.20;3.90;;;24.30;99.90;;;;;;5041674;28;20444;-83
2023/07/09 00:09:15;;;;;;;5.27;4.00;;;24.30;99.90;;;;;;5041852;28;20447;-82
2023/07/09 00:11:42;;;;;;;5.57;4.30;;;24.20;99.90;;;;;;5040855;28;20453;-82
2023/07/09 00:14:10;;;;;;;5.83;3.97;;;24.20;99.90;;;;;;5040646;28;20496;-81
2023/07/09 00:16:37;;;;;;;4.90;3.53;;;24.20;99.90;;;;;;5041486;28;20456;-80
2023/07/09 00:19:05;;;;;;;4.90;3.50;;;24.10;99.90;;;;;;5042508;28;20449;-80
2023/07/09 00:21:34;;;;;;;5.00;3.90;;;24.10;99.90;;;;;;5041292;28;20474;-81
2023/07/09 00:24:04;;;;;;;6.10;4.70;;;24.10;99.90;;;;;;5042423;28;20527;-81
2023/07/09 00:26:31;;;;;;;6.03;4.40;;;24.10;99.90;;;;;;5040949;28;20480;-81
2023/07/09 00:28:58;;;;;;;9.60;3.80;;;24.00;99.90;;;;;;5042021;28;20639;-81
2023/07/09 00:31:26;;;;;;;7.17;4.37;;;24.00;99.90;;;;;;5043066;28;20544;-83
2023/07/09 00:33:52;;;;;;;5.80;4.03;;;24.00;99.90;;;;;;5041839;28;20489;-81
2023/07/09 00:36:26;;;;;;;4.33;3.60;;;23.90;99.90;;;;;;5042455;28;20539;-81
2023/07/09 00:38:54;;;;;;;6.20;3.60;;;23.90;99.90;;;;;;5041857;28;20424;-82
2023/07/09 00:41:23;;;;;;;9.30;4.07;;;23.90;99.90;;;;;;5040984;28;20449;-80
2023/07/09 00:43:52;;;;;;;6.10;4.13;;;23.90;99.90;;;;;;5041335;28;20464;-82
2023/07/09 00:46:52;;;;;;;5.60;3.77;;;23.80;99.90;;;;;;5040345;28;20452;-82
2023/07/09 00:49:29;;;;;;;6.73;4.00;;;23.80;99.90;;;;;;5040530;28;20445;-82
2023/07/09 00:52:01;;;;;;;6.23;3.47;;;23.80;99.90;;;;;;5039842;28;20531;-80
2023/07/09 00:54:35;;;;;;;5.57;3.13;;;23.70;99.90;;;;;;5041560;28;20861;-80
2023/07/09 00:57:08;;;;;;;6.60;4.23;;;23.70;99.90;;;;;;5041926;28;20494;-83
2023/07/09 00:59:35;;;;;;;6.47;4.17;;;23.60;99.90;;;;;;5041567;28;20463;-81
2023/07/09 01:02:04;;;;;;;5.77;4.37;;;23.60;1.00;;;;;;5042096;28;20457;-78
2023/07/09 01:04:31;;;;;;;5.00;3.43;;;23.60;1.00;;;;;;5042095;28;21005;-81
2023/07/09 01:06:58;;;;;;;5.97;4.30;;;23.60;1.00;;;;;;5040205;28;20867;-81
2023/07/09 01:09:26;;;;;;;6.93;3.83;;;23.60;1.00;;;;;;5040982;28;20448;-81
2023/07/09 01:11:56;;;;;;;6.67;4.17;;;23.50;1.00;;;;;;5039239;28;20466;-81
2023/07/09 01:14:25;;;;;;;5.60;3.60;;;23.50;1.00;;;;;;5039098;28;20528;-83
2023/07/09 01:16:57;;;;;;;5.40;4.80;;;23.50;1.00;;;;;;5039182;28;20885;-80
2023/07/09 01:19:28;;;;;;;7.30;5.53;;;23.40;1.00;;;;;;5040566;28;20441;-81
2023/07/09 01:21:58;;;;;;;6.37;3.93;;;23.40;1.00;;;;;;5039674;28;20463;-82
2023/07/09 01:24:53;;;;;;;5.60;4.07;;;23.40;1.00;;;;;;5040340;28;20483;-83
2023/07/09 01:27:26;;;;;;;8.13;4.47;;;23.30;1.00;;;;;;5039828;28;20444;-82
2023/07/09 01:29:53;;;;;;;6.23;4.43;;;23.30;1.00;;;;;;5039627;28;20453;-80
2023/07/09 01:32:22;;;;;;;6.10;3.83;;;23.20;1.00;;;;;;5038432;28;20453;-81
2023/07/09 01:34:54;;;;;;;8.03;4.00;;;23.20;1.00;;;;;;5039211;28;20519;-82
2023/07/09 01:37:25;;;;;;;6.03;4.20;;;23.20;1.00;;;;;;5038948;28;20464;-81
2023/07/09 01:39:52;;;;;;;4.80;3.30;;;23.10;1.00;;;;;;5038540;28;20540;-80
2023/07/09 01:42:21;;;;;;;5.70;3.87;;;23.10;1.00;;;;;;5039227;28;20830;-82
2023/07/09 01:44:50;;;;;;;5.50;3.87;;;23.10;1.00;;;;;;5039960;28;20506;-81
2023/07/09 01:47:17;;;;;;;6.57;4.63;;;23.10;90.80;;;;;;5040986;28;20459;-80
2023/07/09 01:49:46;;;;;;;5.53;3.73;;;23.00;1.00;;;;;;5042484;28;20452;-82
2023/07/09 01:52:16;;;;;;;6.43;4.13;;;23.00;1.00;;;;;;5043287;28;20452;-80
2023/07/09 01:54:49;;;;;;;4.50;3.57;;;23.00;96.90;;;;;;5042982;28;20499;-83
2023/07/09 01:57:19;;;;;;;5.60;3.93;;;22.90;6.10;;;;;;5042137;28;20436;-80
2023/07/09 01:59:46;;;;;;;7.70;3.73;;;22.90;34.80;;;;;;5047245;28;20459;-80
2023/07/09 02:02:18;;;;;;;6.23;4.53;;;22.80;99.90;;;;;;5039499;28;20457;-80
2023/07/09 02:04:46;;;;;;;6.00;3.50;;;22.80;99.90;;;;;;5041623;28;20484;-81
2023/07/09 02:07:13;;;;;;;5.50;3.83;;;22.80;99.90;;;;;;5041800;28;20980;-80
2023/07/09 02:09:42;;;;;;;6.00;3.50;;;22.70;99.90;;;;;;5040715;28;20448;-78
2023/07/09 02:12:11;;;;;;;6.10;4.03;;;22.70;99.90;;;;;;5042919;28;20461;-82
2023/07/09 02:14:38;;;;;;;5.70;4.23;;;22.70;99.90;;;;;;5036963;28;20509;-82
2023/07/09 02:17:05;;;;;;;6.00;4.13;;;22.70;99.90;;;;;;5040410;28;20447;-80
2023/07/09 02:19:32;;;;;;;7.20;4.10;;;22.60;99.90;;;;;;5041731;28;20828;-81
2023/07/09 02:21:59;;;;;;;5.53;4.30;;;22.60;99.90;;;;;;5041014;28;20444;-82
2023/07/09 02:24:27;;;;;;;6.63;4.50;;;22.60;99.90;;;;;;5042203;28;20468;-83
2023/07/09 02:26:54;;;;;;;6.53;3.80;;;22.60;99.90;;;;;;5038891;28;20511;-82
2023/07/09 02:29:22;;;;;;;7.07;4.70;;;22.50;99.90;;;;;;5041066;28;20466;-82
2023/07/09 02:31:50;;;;;;;9.10;3.53;;;22.50;99.90;;;;;;5041216;28;20456;-81
2023/07/09 02:34:17;;;;;;;5.93;4.10;;;22.50;99.90;;;;;;5040477;28;20484;-80
2023/07/09 02:36:44;;;;;;;6.07;4.37;;;22.40;99.90;;;;;;5040369;28;20455;-80
2023/07/09 02:39:11;;;;;;;5.60;3.70;;;22.40;1.00;;;;;;5040023;28;20475;-80
2023/07/09 02:41:38;;;;;;;6.57;4.77;;;22.30;1.00;;;;;;5040717;28;20457;-80
2023/07/09 02:44:05;;;;;;;6.20;4.40;;;22.30;1.00;;;;;;5040683;28;21016;-81
2023/07/09 02:46:34;;;;;;;5.27;4.07;;;22.30;1.00;;;;;;5041428;28;20946;-81
2023/07/09 02:49:01;;;;;;;6.23;4.67;;;22.30;1.00;;;;;;5041669;28;20445;-79
2023/07/09 02:51:28;;;;;;;5.40;4.00;;;22.20;1.00;;;;;;5042197;28;20456;-81
2023/07/09 02:53:56;;;;;;;7.20;4.60;;;22.20;1.00;;;;;;5041277;28;20572;-81
2023/07/09 02:56:23;;;;;;;7.60;5.50;;;22.20;74.00;;;;;;5040679;28;20535;-81
2023/07/09 02:58:51;;;;;;;5.93;4.20;;;22.20;99.90;;;;;;5041739;28;20458;-81
2023/07/09 03:01:20;;;;;;;5.80;3.90;;;22.20;16.30;;;;;;5041522;28;20459;-81
2023/07/09 03:03:48;;;;;;;7.93;4.70;;;22.20;30.10;;;;;;5041809;28;20476;-80
2023/07/09 03:06:15;;;;;;;8.10;5.87;;;22.20;99.90;;;;;;5041306;28;20445;-79
2023/07/09 03:08:41;;;;;;;7.03;4.10;;;22.20;99.90;;;;;;5042299;28;20444;-80
2023/07/09 03:11:12;;;;;;;5.80;4.07;;;22.10;2.20;;;;;;5040435;28;20467;-80
2023/07/09 03:13:39;;;;;;;5.10;3.90;;;22.10;99.90;;;;;;5041309;28;20492;-81
2023/07/09 03:16:06;;;;;;;4.60;3.40;;;22.10;99.90;;;;;;5039817;28;20455;-81
2023/07/09 03:18:33;;;;;;;5.80;4.37;;;22.10;99.90;;;;;;5040263;28;20455;-81
2023/07/09 03:21:01;;;;;;;5.90;3.80;;;22.10;1.00;;;;;;5039825;28;20453;-82
2023/07/09 03:23:29;;;;;;;5.90;4.20;;;22.10;1.00;;;;;;5039483;28;20460;-79
2023/07/09 03:25:56;;;;;;;7.37;4.30;;;22.10;1.00;;;;;;5038437;28;20449;-82
2023/07/09 03:28:23;;;;;;;7.53;4.33;;;22.10;1.00;;;;;;5039552;28;20548;-80
2023/07/09 03:30:50;;;;;;;5.57;4.00;;;22.00;99.90;;;;;;5038943;28;20449;-81
2023/07/09 03:33:18;;;;;;;5.17;4.27;;;22.00;99.90;;;;;;5039219;28;20448;-80
2023/07/09 03:35:45;;;;;;;6.77;4.00;;;22.00;1.00;;;;;;5038945;28;20620;-80
2023/07/09 03:38:13;;;;;;;6.03;4.33;;;22.00;1.00;;;;;;5038741;28;20536;-82
2023/07/09 03:40:40;;;;;;;7.50;4.00;;;21.90;1.00;;;;;;5040365;28;20914;-79
2023/07/09 03:43:07;;;;;;;5.90;4.20;;;21.90;1.00;;;;;;5039310;28;20532;-80
2023/07/09 03:45:36;;;;;;;6.13;4.40;;;21.90;15.40;;;;;;5038918;28;20469;-80
2023/07/09 03:48:03;;;;;;;14.33;4.70;;;21.90;48.20;;;;;;5019602;28;20457;-79
2023/07/09 03:50:30;;;;;;;5.20;4.07;;;21.90;99.90;;;;;;5031785;28;20483;-80
2023/07/09 03:52:57;;;;;;;5.80;4.40;;;21.80;99.90;;;;;;5039133;28;20450;-80
2023/07/09 03:55:26;;;;;;;5.50;4.20;;;21.80;99.90;;;;;;5039539;28;20556;-82
2023/07/09 03:57:53;;;;;;;8.10;5.97;;;21.80;99.90;;;;;;5039658;28;20475;-79
2023/07/09 04:00:20;;;;;;;6.87;4.20;;;21.80;1.00;;;;;;5038702;28;20445;-81
2023/07/09 04:02:47;;;;;;;5.53;4.30;;;21.80;1.00;;;;;;5038142;28;20459;-80
2023/07/09 04:05:14;;;;;;;5.97;4.37;;;21.80;1.00;;;;;;5038596;28;20472;-80
2023/07/09 04:07:41;;;;;;;5.73;4.20;;;21.80;1.00;;;;;;5038405;28;20453;-79
2023/07/09 04:10:08;;;;;;;6.73;4.30;;;21.80;1.00;;;;;;5039074;28;20452;-80
2023/07/09 04:12:37;;;;;;;7.30;4.20;;;21.90;1.00;;;;;;5039323;28;20460;-82
2023/07/09 04:15:05;;;;;;;11.10;4.70;;;21.90;40.30;;;;;;5039079;28;20485;-79
2023/07/09 04:17:32;;;;;;;6.67;3.93;;;21.80;99.90;;;;;;5038940;28;20461;-81
2023/07/09 04:19:59;;;;;;;7.40;4.60;;;21.80;99.90;;;;;;5038779;28;20521;-80
2023/07/09 04:22:26;;;;;;;7.30;4.47;;;21.90;99.90;;;;;;5040307;28;20452;-81
2023/07/09 04:24:53;;;;;;;5.40;3.90;;;21.90;1.00;;;;;;5039533;28;20469;-80
2023/07/09 04:27:20;;;;;;;7.93;3.93;;;21.90;64.10;;;;;;5038591;28;20456;-81
2023/07/09 04:29:48;;;;;;;6.30;4.97;;;21.90;89.40;;;;;;5040156;28;20451;-82
2023/07/09 04:32:16;;;;;;;5.63;4.50;;;21.90;99.90;;;;;;5040632;28;20907;-79
2023/07/09 04:34:43;;;;;;;5.80;4.30;;;21.90;1.00;;;;;;5040348;28;20502;-81
2023/07/09 04:37:11;;;;;;;6.20;4.00;;;22.00;61.00;;;;;;5039052;28;20449;-79
2023/07/09 04:39:38;;;;;;;6.30;4.63;;;22.00;1.00;;;;;;5038569;28;20487;-80
2023/07/09 04:42:06;;;;;;;6.50;4.90;;;22.00;1.00;;;;;;5036993;28;20445;-79
2023/07/09 04:44:33;;;;;;;7.40;5.23;;;22.10;99.90;;;;;;5037516;28;20471;-80
2023/07/09 04:47:01;;;;;;;6.43;5.07;;;22.10;99.90;;;;;;5037271;28;20459;-80
2023/07/09 04:49:28;;;;;;;7.73;4.90;;;22.10;99.90;;;;;;5037275;28;20456;-80
2023/07/09 04:51:56;;;;;;;13.73;6.23;;;22.10;99.90;;;;;;5039354;28;20456;-80
2023/07/09 04:54:23;;;;;;;6.70;5.00;;;22.10;99.90;;;;;;5039039;28;20898;-79
2023/07/09 04:56:50;;;;;;;7.07;5.07;;;22.20;1.00;;;;;;5038869;28;20460;-81
2023/07/09 04:59:17;;;;;;;5.70;5.00;;;22.20;1.00;;;;;;5038325;28;20449;-80
2023/07/09 05:01:43;;;;;;;6.47;4.93;;;22.30;99.90;;;;;;5038153;28;20548;-80
2023/07/09 05:04:12;;;;;;;7.60;4.60;;;22.30;1.00;;;;;;5039061;28;20472;-81
2023/07/09 05:06:39;;;;;;;6.73;4.63;;;22.40;1.00;;;;;;5074793;22;20496;-82
2023/07/09 05:09:06;;;;;;;6.10;4.87;;;22.50;1.00;;;;;;5062919;28;20447;-80
2023/07/09 05:11:34;;;;;;;6.53;4.87;;;22.50;1.00;;;;;;5055560;28;20444;-83
2023/07/09 05:14:01;;;;;;;9.43;4.97;;;22.60;1.00;;;;;;5055425;28;20444;-82
2023/07/09 05:16:28;;;;;;;5.60;3.93;;;22.60;99.90;;;;;;5062694;28;20847;-79
2023/07/09 05:18:55;;;;;;;8.27;5.63;;;22.70;99.90;;;;;;5065479;28;20454;-80
2023/07/09 05:21:23;;;;;;;11.73;5.20;;;22.80;1.00;;;;;;5059207;28;20986;-84
2023/07/09 05:23:49;;;;;;;5.90;4.57;;;22.80;99.90;;;;;;5067712;28;20447;-81
2023/07/09 05:26:16;;;;;;;6.03;4.43;;;22.90;99.90;;;;;;5078289;28;20477;-80
2023/07/09 05:28:43;;;;;;;5.13;4.50;;;23.00;99.90;;;;;;5075318;28;20451;-79
2023/07/09 05:31:10;;;;;;;8.97;4.97;;;23.00;1.00;;;;;;5059580;28;20452;-82
2023/07/09 05:33:37;;;;;;;6.47;4.77;;;;;;;;;;5059456;28;20452;-82
2023/07/09 05:36:05;;;;;;;5.67;4.67;;;23.10;1.00;;;;;;5058896;28;20558;-83
2023/07/09 05:38:33;;;;;;;6.43;4.30;;;23.00;1.00;;;;;;5058789;28;20440;-82
2023/07/09 05:41:01;;;;;;;6.00;4.23;;;23.20;1.00;;;;;;5066372;28;20590;-82
2023/07/09 05:43:28;;;;;;;5.30;4.40;;;23.30;1.00;;;;;;5059927;28;20456;-84
2023/07/09 05:45:54;;;;;;;7.23;5.00;;;23.30;22.10;;;;;;5059328;28;20529;-84
2023/07/09 05:48:21;;;;;;;5.90;4.30;;;23.30;99.90;;;;;;5071606;28;20534;-84
2023/07/09 05:50:49;;;;;;;7.80;4.90;;;23.40;1.00;;;;;;5058825;28;20448;-81
2023/07/09 05:53:16;;;;;;;8.73;4.80;;;23.40;1.00;;;;;;5058910;28;20451;-80
2023/07/09 05:55:44;;;;;;;6.17;4.63;;;23.50;1.00;;;;;;5058263;28;20917;-83
2023/07/09 05:58:11;;;;;;;6.03;4.57;;;23.60;99.90;;;;;;5059196;28;20535;-82
2023/07/09 06:00:41;;;;;;;5.33;4.20;;;23.70;51.80;;;;;;5058226;28;20963;-82
2023/07/09 06:03:08;;;;;;;7.23;4.23;;;23.70;99.90;;;;;;5058773;28;20537;-82
2023/07/09 06:05:35;;;;;;;5.97;4.80;;;23.90;99.90;;;;;;5057645;28;20490;-81
2023/07/09 06:08:01;;;;;;;6.10;5.00;;;23.90;99.90;;;;;;5059057;28;21160;-82
2023/07/09 06:10:29;;;;;;;8.30;4.80;;;23.90;99.90;;;;;;5058989;28;20452;-81
2023/07/09 06:12:58;;;;;;;6.20;4.37;;;24.00;17.70;;;;;;5058112;28;20519;-83
2023/07/09 06:15:25;;;;;;;7.03;4.60;;;24.10;42.50;;;;;;5057767;28;20950;-80
2023/07/09 06:17:52;;;;;;;6.53;4.10;;;24.80;1.00;;;;;;5058263;28;20494;-81
2023/07/09 06:20:19;;;;;;;6.53;4.13;;;24.50;1.00;;;;;;5057935;28;20838;-80
2023/07/09 06:22:46;;;;;;;5.90;4.30;;;25.20;1.00;;;;;;5058393;28;20451;-81
2023/07/09 06:25:13;;;;;;;7.10;4.73;;;24.10;1.00;;;;;;5057824;28;20478;-83
2023/07/09 06:27:40;;;;;;;6.83;4.17;;;;;;;;;;5058433;28;20478;-84
2023/07/09 06:30:09;;;;;;;10.37;5.40;;;24.60;1.00;;;;;;5057830;28;20462;-84
2023/07/09 06:32:36;;;;;;;8.10;4.77;;;24.10;1.00;;;;;;5050884;28;20484;-84
2023/07/09 06:35:04;;;;;;;6.13;4.13;;;24.50;1.00;;;;;;5056484;28;20483;-82
2023/07/09 06:37:31;;;;;;;6.90;4.03;;;24.60;99.90;;;;;;5056522;28;20451;-84
2023/07/09 06:39:58;;;;;;;6.30;4.47;;;25.00;1.00;;;;;;5054645;28;20457;-84
2023/07/09 06:42:25;;;;;;;9.87;4.90;;;24.90;99.90;;;;;;5058715;28;20463;-84
2023/07/09 06:44:52;;;;;;;8.53;5.13;;;24.90;56.30;;;;;;5056955;28;20503;-84
2023/07/09 06:47:20;;;;;;;6.27;4.50;;;25.40;66.20;;;;;;5072599;28;20454;-82
2023/07/09 06:49:47;;;;;;;7.43;4.47;;;25.20;99.90;;;;;;5061983;28;20550;-83
2023/07/09 06:52:13;;;;;;;6.27;4.67;;;24.70;99.90;;;;;;5059365;28;20535;-84
2023/07/09 06:54:40;;;;;;;4.80;4.23;;;25.10;82.70;;;;;;5059033;28;20484;-81
2023/07/09 06:57:07;;;;;;;5.77;4.57;;;24.80;1.00;;;;;;5057758;28;20563;-82
2023/07/09 06:59:34;;;;;;;4.70;4.00;;;24.90;99.90;;;;;;5057956;28;20540;-83
2023/07/09 07:02:01;;;;;;;6.33;4.60;;;24.90;83.20;;;;;;5057931;28;20557;-85
2023/07/09 07:04:29;;;;;;;7.67;5.37;;;25.70;78.80;;;;;;5057969;28;20517;-83
2023/07/09 07:06:56;;;;;;;10.23;4.60;;;25.40;1.00;;;;;;5057487;28;20484;-85
2023/07/09 07:09:23;;;;;;;5.80;4.30;;;25.50;99.90;;;;;;5059217;28;20436;-84
2023/07/09 07:11:50;;;;;;;9.00;5.00;;;25.50;59.50;;;;;;5058633;28;20514;-84
2023/07/09 07:14:17;;;;;;;5.60;4.43;;;25.60;1.00;;;;;;5058313;28;20459;-83
2023/07/09 07:16:44;;;;;;;5.10;4.60;;;25.60;54.50;;;;;;5057412;28;20562;-85
2023/07/09 07:19:11;;;;;;;9.20;5.40;;;25.70;3.90;;;;;;5055490;28;20455;-84
2023/07/09 07:21:39;;;;;;;5.90;4.73;;;25.70;1.00;;;;;;5078222;28;20549;-85
2023/07/09 07:24:06;;;;;;;7.90;4.70;;;25.80;99.90;;;;;;5077821;28;20461;-83
2023/07/09 07:26:34;;;;;;;8.37;4.80;;;25.80;99.90;;;;;;5076431;28;20471;-83
2023/07/09 07:29:01;;;;;;;7.20;4.50;;;25.90;99.90;;;;;;5052937;28;20456;-85
2023/07/09 07:31:27;;;;;;;9.10;4.40;;;26.00;99.90;;;;;;5060766;28;20447;-83
2023/07/09 07:33:54;;;;;;;6.50;4.73;;;26.00;1.00;;;;;;5058710;28;20439;-80
2023/07/09 07:36:21;;;;;;;6.10;4.83;;;26.20;1.00;;;;;;5055626;28;20496;-83
2023/07/09 07:38:49;;;;;;;6.40;4.63;;;26.30;1.00;;;;;;5053288;28;20494;-83
2023/07/09 07:41:16;;;;;;;6.40;5.10;;;26.40;1.00;;;;;;5056290;28;20456;-81
2023/07/09 07:43:43;;;;;;;8.47;5.27;;;26.50;1.00;;;;;;5055723;28;20547;-83
2023/07/09 07:46:09;;;;;;;7.07;4.50;;;26.60;1.00;;;;;;5055269;28;20472;-83
2023/07/09 07:48:36;;;;;;;5.07;4.50;;;26.70;56.00;;;;;;5055514;28;20531;-83
2023/07/09 07:51:04;;;;;;;8.00;5.33;;;26.80;1.00;;;;;;5055976;28;20451;-81
2023/07/09 07:53:31;;;;;;;8.07;4.90;;;26.90;1.00;;;;;;5056492;28;20462;-82
2023/07/09 07:56:01;;;;;;;6.30;4.17;;;27.00;1.00;;;;;;5054994;28;20487;-83
2023/07/09 07:58:28;;;;;;;7.53;5.40;;;27.10;1.00;;;;;;5055870;28;20883;-81
2023/07/09 08:00:59;;;;;;;7.00;4.57;;;27.30;1.00;;;;;;5056612;28;20539;-80
2023/07/09 08:03:26;;;;;;;6.50;4.77;;;27.30;1.00;;;;;;5064480;28;21056;-82
2023/07/09 08:05:53;;;;;;;6.23;4.90;;;27.40;1.00;;;;;;5072975;28;20561;-81
2023/07/09 08:08:20;;;;;;;8.47;5.37;;;27.60;1.00;;;;;;5064438;28;20456;-81
2023/07/09 08:10:47;;;;;;;6.90;5.53;;;27.60;1.00;;;;;;5055202;28;20543;-81
2023/07/09 08:13:15;;;;;;;7.13;5.40;;;27.70;1.00;;;;;;5055940;28;20538;-81
2023/07/09 08:15:45;;;;;;;8.27;5.57;;;27.90;99.90;;;;;;5055884;28;20487;-83
2023/07/09 08:18:12;;;;;;;8.30;4.77;;;27.90;99.90;;;;;;5056523;28;20505;-81
2023/07/09 08:20:39;;;;;;;9.00;5.90;;;;;;;;;;5053656;28;20974;-82
2023/07/09 08:23:06;;;;;;;8.33;5.03;;;28.20;99.90;;;;;;5058350;28;20466;-81
2023/07/09 08:25:33;;;;;;;10.40;5.80;;;28.30;99.90;;;;;;5058308;28;20468;-80
2023/07/09 08:28:00;;;;;;;7.23;5.33;;;28.40;1.00;;;;;;5058706;28;20456;-80
2023/07/09 08:30:28;;;;;;;6.97;5.40;;;28.50;99.90;;;;;;5058626;28;20490;-82
2023/07/09 08:32:57;;;;;;;8.90;6.20;;;28.60;99.90;;;;;;5059589;28;20460;-81
2023/07/09 08:35:23;;;;;;;10.40;5.80;;;28.70;99.90;;;;;;5063384;28;20496;-81
2023/07/09 08:37:50;;;;;;;6.63;5.00;;;28.90;99.90;;;;;;5067191;28;20466;-82
2023/07/09 08:40:18;;;;;;;9.63;5.70;;;28.90;99.90;;;;;;5068976;28;20475;-79
2023/07/09 08:42:47;;;;;;;9.03;5.90;;;29.10;99.90;;;;;;5063499;28;21158;-83
2023/07/09 08:45:27;;;;;;;8.10;5.77;;;29.20;99.90;;;;;;5053028;28;20567;-83
2023/07/09 08:48:02;;;;;;;10.67;4.20;;;29.30;99.90;;;;;;5055234;28;20445;-83
2023/07/09 08:50:37;;;;;;;8.20;6.40;;;29.40;99.90;;;;;;5052381;28;20447;-82
2023/07/09 08:53:06;;;;;;;8.33;5.63;;;29.50;99.90;;;;;;5058204;28;20463;-80
2023/07/09 08:55:40;;;;;;;7.63;5.83;;;29.70;99.90;;;;;;5051755;28;20491;-80
2023/07/09 08:58:15;;;;;;;7.50;5.50;;;29.80;99.90;;;;;;5061234;28;20451;-81
2023/07/09 09:00:49;;;;;;;8.80;6.37;;;30.00;99.90;;;;;;5062648;28;20538;-80
2023/07/09 09:03:29;;;;;;;7.67;5.47;;;30.30;1.00;;;;;;5062316;28;20413;-80
2023/07/09 09:05:56;;;;;;;8.40;5.43;;;30.30;99.90;;;;;;5061405;28;20911;-81
2023/07/09 09:08:34;;;;;;;6.53;5.20;;;30.40;99.90;;;;;;5062433;28;20463;-81
2023/07/09 09:11:10;;;;;;;8.90;5.90;;;30.70;99.90;;;;;;5061789;28;20448;-81
2023/07/09 09:13:39;;;;;;;6.17;5.00;;;30.80;99.90;;;;;;5061541;28;20434;-83
2023/07/09 09:16:13;;;;;;;6.00;5.30;;;31.10;99.90;;;;;;5062311;28;20546;-82
2023/07/09 09:18:45;;;;;;;6.43;4.90;;;31.20;99.90;;;;;;5060596;28;20455;-81
2023/07/09 09:21:17;;;;;;;6.43;4.37;;;31.50;99.90;;;;;;5062538;28;20436;-82
2023/07/09 09:23:49;;;;;;;6.20;4.60;;;31.50;99.90;;;;;;5063108;28;20448;-81
2023/07/09 09:26:19;;;;;;;7.13;4.50;;;31.70;99.90;;;;;;5062462;28;20480;-82
2023/07/09 09:28:46;;;;;;;10.40;5.00;;;31.70;99.90;;;;;;5058889;28;20449;-83
2023/07/09 09:31:14;;;;;;;7.70;5.30;;;31.70;99.90;;;;;;5063748;28;20460;-82
2023/07/09 09:33:48;;;;;;;6.20;4.33;;;31.80;99.90;;;;;;5075614;28;20825;-82
2023/07/09 09:36:18;;;;;;;5.60;4.10;;;31.80;99.90;;;;;;5070726;28;20491;-83
2023/07/09 09:38:45;;;;;;;5.90;4.53;;;31.90;99.90;;;;;;5069068;28;20523;-82
2023/07/09 09:41:17;;;;;;;7.10;4.40;;;32.00;99.90;;;;;;5060768;28;20477;-83
2023/07/09 09:43:46;;;;;;;8.63;4.83;;;32.10;99.90;;;;;;5060024;28;20444;-82
2023/07/09 09:46:19;;;;;;;6.00;4.20;;;32.20;99.90;;;;;;5063230;28;20566;-82
2023/07/09 09:48:49;;;;;;;5.00;3.93;;;32.40;99.90;;;;;;5060218;28;20432;-81
2023/07/09 09:51:17;;;;;;;6.60;3.93;;;32.50;99.90;;;;;;5061581;28;20558;-81
2023/07/09 09:53:49;;;;;;;6.57;4.40;;;32.70;99.90;;;;;;5068355;28;20964;-80
2023/07/09 09:56:20;;;;;;;9.40;4.57;;;32.80;99.90;;;;;;5042137;28;20509;-80
2023/07/09 09:58:47;;;;;;;7.80;4.97;;;32.90;99.90;;;;;;5060988;28;20456;-79
2023/07/09 10:01:16;;;;;;;6.07;4.37;;;33.00;99.90;;;;;;5057908;28;20535;-80
2023/07/09 10:03:44;;;;;;;6.20;5.03;;;33.20;99.90;;;;;;5056499;28;20968;-82
2023/07/09 10:06:18;;;;;;;4.83;3.80;;;33.50;99.90;;;;;;5062137;28;20475;-82
2023/07/09 10:08:56;;;;;;;6.37;4.30;;;33.70;99.90;;;;;;5073678;28;20827;-81
2023/07/09 10:11:32;;;;;;;8.57;4.73;;;34.00;99.90;;;;;;5075978;28;20490;-81
2023/07/09 10:14:17;;;;;;;7.77;4.63;;;34.20;99.90;;;;;;5071087;28;20510;-81
2023/07/09 10:16:47;;;;;;;6.50;4.33;;;34.40;99.90;;;;;;5061352;28;20510;-82
2023/07/09 10:19:23;;;;;;;7.33;4.13;;;34.60;99.90;;;;;;5061111;28;20901;-81
2023/07/09 10:21:58;;;;;;;5.90;4.20;;;34.60;99.90;;;;;;5060892;28;20811;-81
2023/07/09 10:24:38;;;;;;;5.00;3.87;;;34.80;99.90;;;;;;5060934;28;20482;-81
2023/07/09 10:27:12;;;;;;;7.57;3.97;;;35.00;99.90;;;;;;5058969;28;20500;-80
2023/07/09 10:29:49;;;;;;;6.53;4.17;;;35.10;99.90;;;;;;5060064;28;20456;-80
2023/07/09 10:32:28;;;;;;;6.17;4.77;;;35.20;99.90;;;;;;5060890;28;20483;-81
2023/07/09 10:35:01;;;;;;;6.00;4.07;;;35.10;99.90;;;;;;5060464;28;20622;-80
2023/07/09 10:37:49;;;;;;;7.10;3.93;;;35.00;99.90;;;;;;5059249;28;20514;-80
2023/07/09 10:40:20;;;;;;;7.50;3.90;;;35.10;99.90;;;;;;5059632;28;20550;-79
2023/07/09 10:42:50;;;;;;;5.97;5.00;;;35.10;99.90;;;;;;5059911;28;20515;-81
2023/07/09 10:45:27;;;;;;;5.60;3.73;;;35.30;99.90;;;;;;5058598;28;21051;-80
2023/07/09 10:47:59;;;;;;;8.80;4.70;;;35.40;99.90;;;;;;5060101;28;20519;-81
2023/07/09 10:50:31;;;;;;;6.03;4.83;;;35.50;99.90;;;;;;5058594;28;20448;-81
2023/07/09 10:53:03;;;;;;;4.80;3.90;;;35.60;99.90;;;;;;5059395;28;20824;-80
2023/07/09 10:55:33;;;;;;;4.43;3.60;;;35.60;99.90;;;;;;5057376;28;20478;-80
2023/07/09 10:58:04;;;;;;;4.43;3.20;;;35.60;99.90;;;;;;5058203;28;20479;-81
2023/07/09 11:00:36;;;;;;;5.10;3.50;;;35.80;99.90;;;;;;5057592;28;20963;-81
2023/07/09 11:03:06;;;;;;;6.53;3.77;;;35.80;99.90;;;;;;5058441;28;20444;-80
2023/07/09 11:05:34;;;;;;;4.53;3.90;;;35.90;99.90;;;;;;5079985;22;20494;-76
2023/07/09 11:08:06;;;;;;;5.63;4.37;;;36.00;99.90;;;;;;5033658;28;20472;-81
2023/07/09 11:10:37;;;;;;;6.90;3.90;;;36.30;99.90;;;;;;5026760;28;20453;-81
2023/07/09 11:13:06;;;;;;;8.27;3.60;;;36.30;99.90;;;;;;5038005;28;20455;-77
2023/07/09 11:15:37;;;;;;;6.47;3.27;;;36.80;99.90;;;;;;5037487;28;20463;-79
2023/07/09 11:18:07;;;;;;;4.30;3.07;;;36.50;99.90;;;;;;5029634;28;20487;-80
2023/07/09 11:20:36;;;;;;;4.43;3.20;;;36.60;99.90;;;;;;5030746;28;20456;-79
2023/07/09 11:23:06;;;;;;;6.27;3.20;;;36.70;99.90;;;;;;5033109;28;20473;-78
2023/07/09 11:25:43;;;;;;;5.27;4.10;;;36.70;99.90;;;;;;5033730;28;20453;-81
2023/07/09 11:28:10;;;;;;;6.70;3.20;;;36.70;99.90;;;;;;5030479;28;20444;-80
2023/07/09 11:30:48;;;;;;;6.73;3.30;;;36.90;99.90;;;;;;5026374;28;20973;-79
2023/07/09 11:33:20;;;;;;;5.00;3.47;;;37.10;99.90;;;;;;5028006;28;20464;-79
2023/07/09 11:35:48;;;;;;;4.33;3.40;;;37.20;99.90;;;;;;5030587;28;20479;-80
2023/07/09 11:38:20;;;;;;;4.93;2.80;;;37.30;99.90;;;;;;5030408;28;20495;-80
2023/07/09 11:40:48;;;;;;;4.17;2.80;;;37.50;99.90;;;;;;5033056;28;20495;-81
2023/07/09 11:43:29;;;;;;;6.23;3.30;;;37.60;99.90;;;;;;5034909;28;20457;-81
2023/07/09 11:45:59;;;;;;;6.30;4.47;;;37.80;99.90;;;;;;5022629;28;20473;-81
2023/07/09 11:48:28;;;;;;;5.30;3.00;;;37.80;99.90;;;;;;5036770;28;20463;-81
2023/07/09 11:50:58;;;;;;;5.67;4.30;;;37.90;99.90;;;;;;5035339;28;20457;-82
2023/07/09 11:53:36;;;;;;;4.37;2.93;;;38.00;99.90;;;;;;5029707;28;20453;-80
2023/07/09 11:56:03;;;;;;;5.30;2.80;;;38.00;99.90;;;;;;5029731;28;20481;-80
2023/07/09 11:58:30;;;;;;;3.90;3.47;;;37.80;99.90;;;;;;5032101;28;20464;-78
2023/07/09 12:00:59;;;;;;;7.70;3.70;;;37.60;99.90;;;;;;5029733;28;20460;-79
2023/07/09 12:03:29;;;;;;;7.30;3.60;;;37.30;99.90;;;;;;5031732;28;20460;-80
2023/07/09 12:06:03;;;;;;;4.80;4.03;;;37.20;99.90;;;;;;5031414;28;20535;-79
2023/07/09 12:08:35;;;;;;;6.47;3.53;;;37.30;99.90;;;;;;5032038;28;20456;-80
2023/07/09 12:11:02;;;;;;;5.97;3.63;;;37.50;99.90;;;;;;5033862;28;20452;-80
2023/07/09 12:13:29;;;;;;;6.53;3.23;;;37.70;99.90;;;;;;5031125;28;20467;-79
2023/07/09 12:15:56;;;;;;;5.20;3.63;;;37.90;99.90;;;;;;5029409;28;20993;-80
2023/07/09 12:18:23;;;;;;;4.07;2.80;;;37.70;99.90;;;;;;5031738;28;20508;-80
2023/07/09 12:20:52;;;;;;;3.77;2.80;;;37.80;99.90;;;;;;5028901;28;20531;-79
2023/07/09 12:23:26;;;;;;;5.27;2.80;;;37.80;99.90;;;;;;5033138;28;20527;-80
2023/07/09 12:25:55;;;;;;;5.30;3.67;;;37.80;99.90;;;;;;5030198;28;20914;-82
2023/07/09 12:28:23;;;;;;;5.50;3.43;;;37.70;99.90;;;;;;5029877;28;20445;-80
2023/07/09 12:30:51;;;;;;;5.67;3.83;;;37.80;99.90;;;;;;5033509;28;20459;-81
2023/07/09 12:33:19;;;;;;;5.13;3.43;;;37.60;99.90;;;;;;5034220;28;20457;-81
2023/07/09 12:35:47;;;;;;;5.43;3.50;;;37.50;99.90;;;;;;5032453;28;20476;-81
2023/07/09 12:38:20;;;;;;;5.83;3.77;;;37.40;99.90;;;;;;5033196;28;20494;-81
2023/07/09 12:40:47;;;;;;;4.83;3.90;;;37.20;99.90;;;;;;5035042;28;20960;-80
2023/07/09 12:43:22;;;;;;;5.27;3.50;;;37.30;99.90;;;;;;5035440;28;20448;-79
2023/07/09 12:45:49;;;;;;;6.63;3.73;;;37.20;99.90;;;;;;5032887;28;20984;-81
2023/07/09 12:48:16;;;;;;;7.00;3.77;;;37.40;99.90;;;;;;5028312;28;20498;-80
2023/07/09 12:50:50;;;;;;;4.70;3.60;;;37.50;99.90;;;;;;5031766;28;20444;-82
2023/07/09 12:53:20;;;;;;;6.30;3.67;;;37.60;99.90;;;;;;5034655;28;20484;-80
2023/07/09 12:55:50;;;;;;;5.40;3.10;;;37.50;99.90;;;;;;5026336;28;20588;-82
2023/07/09 12:58:20;;;;;;;5.47;3.40;;;37.40;99.90;;;;;;5036142;28;20538;-80
2023/07/09 13:00:51;;;;;;;4.80;3.63;;;37.10;99.90;;;;;;5037367;28;20453;-82